sensor_id;sensor_type;location;lat;lon;timestamp;temperature;humidity
37530;DHT22;23374;52.758;6.872;2022-12-07T00:01:25;5.00;99.90
37530;DHT22;23374;52.758;6.872;2022-12-07T00:03:48;5.00;99.90
37530;DHT22;23374;52.758;6.872;2022-12-07T00:06:13;4.90;99.90
37530;DHT22;23374;52.758;6.872;2022-12-07T00:08:35;4.90;99.90
37530;DHT22;23374;52.758;6.872;2022-12-07T00:11:33;4.90;99.90
37530;DHT22;23374;52.758;6.872;2022-12-07T00:13:58;4.80;99.90
37530;DHT22;23374;52.758;6.872;2022-12-07T00:16:21;4.80;99.90
37530;DHT22;23374;52.758;6.872;2022-12-07T00:18:42;4.80;99.90
37530;DHT22;23374;52.758;6.872;2022-12-07T00:21:13;4.70;99.90
37530;DHT22;23374;52.758;6.872;2022-12-07T00:23:34;4.70;99.90
37530;DHT22;23374;52.758;6.872;2022-12-07T00:25:55;4.70;99.90
37530;DHT22;23374;52.758;6.872;2022-12-07T00:28:15;4.70;99.90
37530;DHT22;23374;52.758;6.872;2022-12-07T00:30:35;4.70;99.90
37530;DHT22;23374;52.758;6.872;2022-12-07T00:32:55;4.70;99.90
37530;DHT22;23374;52.758;6.872;2022-12-07T00:35:15;4.60;99.90
37530;DHT22;23374;52.758;6.872;2022-12-07T00:37:36;4.60;99.90
37530;DHT22;23374;52.758;6.872;2022-12-07T00:39:56;4.50;99.90
37530;DHT22;23374;52.758;6.872;2022-12-07T00:42:16;4.50;99.90
37530;DHT22;23374;52.758;6.872;2022-12-07T00:44:36;4.50;99.90
37530;DHT22;23374;52.758;6.872;2022-12-07T00:46:56;4.50;99.90
37530;DHT22;23374;52.758;6.872;2022-12-07T00:49:16;4.40;99.90
37530;DHT22;23374;52.758;6.872;2022-12-07T00:51:36;4.40;99.90
37530;DHT22;23374;52.758;6.872;2022-12-07T00:53:56;4.40;99.90
37530;DHT22;23374;52.758;6.872;2022-12-07T00:56:23;4.40;99.90
37530;DHT22;23374;52.758;6.872;2022-12-07T00:58:48;4.40;99.90
37530;DHT22;23374;52.758;6.872;2022-12-07T01:01:10;4.40;99.90
37530;DHT22;23374;52.758;6.872;2022-12-07T01:03:31;4.40;99.90
37530;DHT22;23374;52.758;6.872;2022-12-07T01:05:53;4.40;99.90
37530;DHT22;23374;52.758;6.872;2022-12-07T01:08:14;4.40;99.90
37530;DHT22;23374;52.758;6.872;2022-12-07T01:10:34;4.40;99.90
37530;DHT22;23374;52.758;6.872;2022-12-07T01:12:55;4.40;99.90
37530;DHT22;23374;52.758;6.872;2022-12-07T01:15:15;4.30;99.90
37530;DHT22;23374;52.758;6.872;2022-12-07T01:17:37;4.30;99.90
37530;DHT22;23374;52.758;6.872;2022-12-07T01:19:57;4.30;99.90
37530;DHT22;23374;52.758;6.872;2022-12-07T01:22:17;4.30;99.90
37530;DHT22;23374;52.758;6.872;2022-12-07T01:24:37;4.30;99.90
37530;DHT22;23374;52.758;6.872;2022-12-07T01:26:57;4.30;99.90
37530;DHT22;23374;52.758;6.872;2022-12-07T01:29:17;4.30;99.90
37530;DHT22;23374;52.758;6.872;2022-12-07T01:31:37;4.30;99.90
37530;DHT22;23374;52.758;6.872;2022-12-07T01:33:59;4.30;99.90
37530;DHT22;23374;52.758;6.872;2022-12-07T01:36:32;4.30;99.90
37530;DHT22;23374;52.758;6.872;2022-12-07T01:38:59;4.30;99.90
37530;DHT22;23374;52.758;6.872;2022-12-07T01:41:21;4.30;99.90
37530;DHT22;23374;52.758;6.872;2022-12-07T01:44:24;4.30;99.90
37530;DHT22;23374;52.758;6.872;2022-12-07T01:46:50;4.30;99.90
37530;DHT22;23374;52.758;6.872;2022-12-07T01:49:53;4.30;99.90
37530;DHT22;23374;52.758;6.872;2022-12-07T01:52:28;4.30;99.90
37530;DHT22;23374;52.758;6.872;2022-12-07T01:54:53;4.20;99.90
37530;DHT22;23374;52.758;6.872;2022-12-07T01:57:15;4.20;99.90
37530;DHT22;23374;52.758;6.872;2022-12-07T01:59:36;4.20;99.90
37530;DHT22;23374;52.758;6.872;2022-12-07T02:01:56;4.20;99.90
37530;DHT22;23374;52.758;6.872;2022-12-07T02:04:18;4.20;99.90
37530;DHT22;23374;52.758;6.872;2022-12-07T02:06:38;4.20;99.90
37530;DHT22;23374;52.758;6.872;2022-12-07T02:08:59;4.20;99.90
37530;DHT22;23374;52.758;6.872;2022-12-07T02:11:19;4.20;99.90
37530;DHT22;23374;52.758;6.872;2022-12-07T02:13:42;4.20;99.90
37530;DHT22;23374;52.758;6.872;2022-12-07T02:26:19;4.20;99.90
37530;DHT22;23374;52.758;6.872;2022-12-07T02:30:42;4.20;99.90
37530;DHT22;23374;52.758;6.872;2022-12-07T02:33:19;4.30;99.90
37530;DHT22;23374;52.758;6.872;2022-12-07T02:36:27;4.30;99.90
37530;DHT22;23374;52.758;6.872;2022-12-07T02:39:46;4.30;99.90
37530;DHT22;23374;52.758;6.872;2022-12-07T02:42:23;4.40;99.90
37530;DHT22;23374;52.758;6.872;2022-12-07T02:44:45;4.40;99.90
37530;DHT22;23374;52.758;6.872;2022-12-07T02:47:09;4.40;99.90
37530;DHT22;23374;52.758;6.872;2022-12-07T02:49:32;4.40;99.90
37530;DHT22;23374;52.758;6.872;2022-12-07T02:51:53;4.50;99.90
37530;DHT22;23374;52.758;6.872;2022-12-07T02:54:17;4.50;99.90
37530;DHT22;23374;52.758;6.872;2022-12-07T02:58:32;4.50;99.90
37530;DHT22;23374;52.758;6.872;2022-12-07T03:06:22;4.50;99.90
37530;DHT22;23374;52.758;6.872;2022-12-07T03:09:42;4.40;99.90
37530;DHT22;23374;52.758;6.872;2022-12-07T03:12:21;4.40;99.90
37530;DHT22;23374;52.758;6.872;2022-12-07T03:15:14;4.30;99.90
37530;DHT22;23374;52.758;6.872;2022-12-07T03:17:39;4.30;99.90
37530;DHT22;23374;52.758;6.872;2022-12-07T03:20:06;4.20;99.90
37530;DHT22;23374;52.758;6.872;2022-12-07T03:22:31;4.20;99.90
37530;DHT22;23374;52.758;6.872;2022-12-07T03:24:58;4.20;99.90
37530;DHT22;23374;52.758;6.872;2022-12-07T03:27:23;4.10;99.90
37530;DHT22;23374;52.758;6.872;2022-12-07T03:29:51;4.10;99.90
37530;DHT22;23374;52.758;6.872;2022-12-07T03:32:40;4.00;99.90
37530;DHT22;23374;52.758;6.872;2022-12-07T03:36:58;4.00;99.90
37530;DHT22;23374;52.758;6.872;2022-12-07T03:43:41;3.90;99.90
37530;DHT22;23374;52.758;6.872;2022-12-07T03:46:43;3.90;99.90
37530;DHT22;23374;52.758;6.872;2022-12-07T03:50:49;3.90;99.90
37530;DHT22;23374;52.758;6.872;2022-12-07T03:53:32;3.90;99.90
37530;DHT22;23374;52.758;6.872;2022-12-07T03:55:54;3.90;99.90
37530;DHT22;23374;52.758;6.872;2022-12-07T03:58:19;3.90;99.90
37530;DHT22;23374;52.758;6.872;2022-12-07T04:00:43;3.90;99.90
37530;DHT22;23374;52.758;6.872;2022-12-07T04:03:04;3.90;99.90
37530;DHT22;23374;52.758;6.872;2022-12-07T04:05:24;3.90;99.90
37530;DHT22;23374;52.758;6.872;2022-12-07T04:07:44;3.90;99.90
37530;DHT22;23374;52.758;6.872;2022-12-07T04:10:06;3.90;99.90
37530;DHT22;23374;52.758;6.872;2022-12-07T04:12:26;3.90;99.90
37530;DHT22;23374;52.758;6.872;2022-12-07T04:17:10;3.90;99.90
37530;DHT22;23374;52.758;6.872;2022-12-07T04:19:33;3.90;99.90
37530;DHT22;23374;52.758;6.872;2022-12-07T04:21:55;3.80;99.90
37530;DHT22;23374;52.758;6.872;2022-12-07T04:24:16;3.80;99.90
37530;DHT22;23374;52.758;6.872;2022-12-07T04:26:36;3.80;99.90
37530;DHT22;23374;52.758;6.872;2022-12-07T04:28:57;3.80;99.90
37530;DHT22;23374;52.758;6.872;2022-12-07T04:31:17;3.80;99.90
37530;DHT22;23374;52.758;6.872;2022-12-07T04:33:37;3.80;99.90
37530;DHT22;23374;52.758;6.872;2022-12-07T04:35:57;3.70;99.90
37530;DHT22;23374;52.758;6.872;2022-12-07T04:38:17;3.70;99.90
37530;DHT22;23374;52.758;6.872;2022-12-07T04:40:38;3.70;99.90
37530;DHT22;23374;52.758;6.872;2022-12-07T04:42:58;3.70;99.90
37530;DHT22;23374;52.758;6.872;2022-12-07T04:45:18;3.70;99.90
37530;DHT22;23374;52.758;6.872;2022-12-07T04:47:38;3.70;99.90
37530;DHT22;23374;52.758;6.872;2022-12-07T04:49:58;3.70;99.90
37530;DHT22;23374;52.758;6.872;2022-12-07T04:52:18;3.70;99.90
37530;DHT22;23374;52.758;6.872;2022-12-07T04:54:38;3.70;99.90
37530;DHT22;23374;52.758;6.872;2022-12-07T04:56:58;3.70;99.90
37530;DHT22;23374;52.758;6.872;2022-12-07T04:59:18;3.70;99.90
37530;DHT22;23374;52.758;6.872;2022-12-07T05:01:39;3.60;99.90
37530;DHT22;23374;52.758;6.872;2022-12-07T05:04:00;3.60;99.90
37530;DHT22;23374;52.758;6.872;2022-12-07T05:06:21;3.60;99.90
37530;DHT22;23374;52.758;6.872;2022-12-07T05:08:41;3.60;99.90
37530;DHT22;23374;52.758;6.872;2022-12-07T05:11:04;3.60;99.90
37530;DHT22;23374;52.758;6.872;2022-12-07T05:13:25;3.60;99.90
37530;DHT22;23374;52.758;6.872;2022-12-07T05:15:47;3.50;99.90
37530;DHT22;23374;52.758;6.872;2022-12-07T05:18:08;3.50;99.90
37530;DHT22;23374;52.758;6.872;2022-12-07T05:20:29;3.50;99.90
37530;DHT22;23374;52.758;6.872;2022-12-07T05:22:49;3.40;99.90
37530;DHT22;23374;52.758;6.872;2022-12-07T05:25:09;3.40;99.90
37530;DHT22;23374;52.758;6.872;2022-12-07T05:27:29;3.40;99.90
37530;DHT22;23374;52.758;6.872;2022-12-07T05:29:50;3.40;99.90
37530;DHT22;23374;52.758;6.872;2022-12-07T05:32:11;3.40;99.90
37530;DHT22;23374;52.758;6.872;2022-12-07T05:34:31;3.40;99.90
37530;DHT22;23374;52.758;6.872;2022-12-07T05:36:52;3.40;99.90
37530;DHT22;23374;52.758;6.872;2022-12-07T05:39:12;3.40;99.90
37530;DHT22;23374;52.758;6.872;2022-12-07T05:41:32;3.50;99.90
37530;DHT22;23374;52.758;6.872;2022-12-07T05:44:11;3.50;99.90
37530;DHT22;23374;52.758;6.872;2022-12-07T05:46:32;3.50;99.90
37530;DHT22;23374;52.758;6.872;2022-12-07T05:48:53;3.60;99.90
37530;DHT22;23374;52.758;6.872;2022-12-07T05:51:13;3.60;99.90
37530;DHT22;23374;52.758;6.872;2022-12-07T05:53:33;3.70;99.90
37530;DHT22;23374;52.758;6.872;2022-12-07T05:55:54;3.70;99.90
37530;DHT22;23374;52.758;6.872;2022-12-07T05:58:14;3.80;99.90
37530;DHT22;23374;52.758;6.872;2022-12-07T06:00:55;3.80;99.90
37530;DHT22;23374;52.758;6.872;2022-12-07T06:03:15;3.80;99.90
37530;DHT22;23374;52.758;6.872;2022-12-07T06:05:36;3.80;99.90
37530;DHT22;23374;52.758;6.872;2022-12-07T06:07:56;3.80;99.90
37530;DHT22;23374;52.758;6.872;2022-12-07T06:10:16;3.80;99.90
37530;DHT22;23374;52.758;6.872;2022-12-07T06:12:36;3.80;99.90
37530;DHT22;23374;52.758;6.872;2022-12-07T06:14:59;3.80;99.90
37530;DHT22;23374;52.758;6.872;2022-12-07T06:17:19;3.70;99.90
37530;DHT22;23374;52.758;6.872;2022-12-07T06:19:40;3.70;99.90
37530;DHT22;23374;52.758;6.872;2022-12-07T06:22:01;3.70;99.90
37530;DHT22;23374;52.758;6.872;2022-12-07T06:24:22;3.60;99.90
37530;DHT22;23374;52.758;6.872;2022-12-07T06:26:44;3.60;99.90
37530;DHT22;23374;52.758;6.872;2022-12-07T06:29:04;3.60;99.90
37530;DHT22;23374;52.758;6.872;2022-12-07T06:31:25;3.60;99.90
37530;DHT22;23374;52.758;6.872;2022-12-07T06:33:45;3.50;99.90
37530;DHT22;23374;52.758;6.872;2022-12-07T06:36:07;3.50;99.90
37530;DHT22;23374;52.758;6.872;2022-12-07T06:38:27;3.40;99.90
37530;DHT22;23374;52.758;6.872;2022-12-07T06:40:47;3.40;99.90
37530;DHT22;23374;52.758;6.872;2022-12-07T06:43:08;3.30;99.90
37530;DHT22;23374;52.758;6.872;2022-12-07T06:45:28;3.30;99.90
37530;DHT22;23374;52.758;6.872;2022-12-07T06:47:48;3.20;99.90
37530;DHT22;23374;52.758;6.872;2022-12-07T06:50:10;3.20;99.90
37530;DHT22;23374;52.758;6.872;2022-12-07T06:52:30;3.20;99.90
37530;DHT22;23374;52.758;6.872;2022-12-07T06:54:50;3.20;99.90
37530;DHT22;23374;52.758;6.872;2022-12-07T06:57:10;3.10;99.90
37530;DHT22;23374;52.758;6.872;2022-12-07T06:59:31;3.10;99.90
37530;DHT22;23374;52.758;6.872;2022-12-07T07:01:52;3.10;99.90
37530;DHT22;23374;52.758;6.872;2022-12-07T07:04:12;3.10;99.90
37530;DHT22;23374;52.758;6.872;2022-12-07T07:06:32;3.10;99.90
37530;DHT22;23374;52.758;6.872;2022-12-07T07:08:53;3.10;99.90
37530;DHT22;23374;52.758;6.872;2022-12-07T07:11:13;3.10;99.90
37530;DHT22;23374;52.758;6.872;2022-12-07T07:13:33;3.10;99.90
37530;DHT22;23374;52.758;6.872;2022-12-07T07:15:55;3.10;99.90
37530;DHT22;23374;52.758;6.872;2022-12-07T07:18:15;3.10;99.90
37530;DHT22;23374;52.758;6.872;2022-12-07T07:20:36;3.10;99.90
37530;DHT22;23374;52.758;6.872;2022-12-07T07:22:56;3.10;99.90
37530;DHT22;23374;52.758;6.872;2022-12-07T07:25:17;3.20;99.90
37530;DHT22;23374;52.758;6.872;2022-12-07T07:27:37;3.20;99.90
37530;DHT22;23374;52.758;6.872;2022-12-07T07:29:57;3.20;99.90
37530;DHT22;23374;52.758;6.872;2022-12-07T07:32:18;3.20;99.90
37530;DHT22;23374;52.758;6.872;2022-12-07T07:34:39;3.20;99.90
37530;DHT22;23374;52.758;6.872;2022-12-07T07:37:00;3.20;99.90
37530;DHT22;23374;52.758;6.872;2022-12-07T07:39:20;3.20;99.90
37530;DHT22;23374;52.758;6.872;2022-12-07T07:41:40;3.20;99.90
37530;DHT22;23374;52.758;6.872;2022-12-07T07:44:01;3.30;99.90
37530;DHT22;23374;52.758;6.872;2022-12-07T07:46:21;3.30;99.90
37530;DHT22;23374;52.758;6.872;2022-12-07T07:48:42;3.30;99.90
37530;DHT22;23374;52.758;6.872;2022-12-07T07:51:06;3.30;99.90
37530;DHT22;23374;52.758;6.872;2022-12-07T07:53:26;3.30;99.90
37530;DHT22;23374;52.758;6.872;2022-12-07T07:55:54;3.40;99.90
37530;DHT22;23374;52.758;6.872;2022-12-07T07:58:14;3.40;99.90
37530;DHT22;23374;52.758;6.872;2022-12-07T08:00:34;3.40;99.90
37530;DHT22;23374;52.758;6.872;2022-12-07T08:02:55;3.40;99.90
37530;DHT22;23374;52.758;6.872;2022-12-07T08:05:15;3.40;99.90
37530;DHT22;23374;52.758;6.872;2022-12-07T08:07:35;3.40;99.90
37530;DHT22;23374;52.758;6.872;2022-12-07T08:09:56;3.50;99.90
37530;DHT22;23374;52.758;6.872;2022-12-07T08:12:16;3.50;99.90
37530;DHT22;23374;52.758;6.872;2022-12-07T08:14:36;3.50;99.90
37530;DHT22;23374;52.758;6.872;2022-12-07T08:16:57;3.50;99.90
37530;DHT22;23374;52.758;6.872;2022-12-07T08:19:17;3.60;99.90
37530;DHT22;23374;52.758;6.872;2022-12-07T08:21:37;3.60;99.90
37530;DHT22;23374;52.758;6.872;2022-12-07T08:23:57;3.60;99.90
37530;DHT22;23374;52.758;6.872;2022-12-07T08:26:18;3.60;99.90
37530;DHT22;23374;52.758;6.872;2022-12-07T08:28:39;3.70;99.90
37530;DHT22;23374;52.758;6.872;2022-12-07T08:31:07;3.70;99.90
37530;DHT22;23374;52.758;6.872;2022-12-07T08:33:28;3.70;99.90
37530;DHT22;23374;52.758;6.872;2022-12-07T08:35:49;3.70;99.90
37530;DHT22;23374;52.758;6.872;2022-12-07T08:38:09;3.70;99.90
37530;DHT22;23374;52.758;6.872;2022-12-07T08:40:30;3.70;99.90
37530;DHT22;23374;52.758;6.872;2022-12-07T08:42:51;3.80;99.90
37530;DHT22;23374;52.758;6.872;2022-12-07T08:45:14;3.70;99.90
37530;DHT22;23374;52.758;6.872;2022-12-07T08:48:03;3.70;99.90
37530;DHT22;23374;52.758;6.872;2022-12-07T08:50:24;3.80;99.90
37530;DHT22;23374;52.758;6.872;2022-12-07T08:52:44;3.80;99.90
37530;DHT22;23374;52.758;6.872;2022-12-07T08:55:11;3.80;99.90
37530;DHT22;23374;52.758;6.872;2022-12-07T08:57:34;3.80;99.90
37530;DHT22;23374;52.758;6.872;2022-12-07T08:59:55;3.80;99.90
37530;DHT22;23374;52.758;6.872;2022-12-07T09:02:15;3.80;99.90
37530;DHT22;23374;52.758;6.872;2022-12-07T09:04:35;3.70;99.90
37530;DHT22;23374;52.758;6.872;2022-12-07T09:06:55;3.70;99.90
37530;DHT22;23374;52.758;6.872;2022-12-07T09:09:16;3.70;99.90
37530;DHT22;23374;52.758;6.872;2022-12-07T09:11:36;3.70;99.90
37530;DHT22;23374;52.758;6.872;2022-12-07T09:13:56;3.70;99.90
37530;DHT22;23374;52.758;6.872;2022-12-07T09:16:17;3.70;99.90
37530;DHT22;23374;52.758;6.872;2022-12-07T09:18:38;3.70;99.90
37530;DHT22;23374;52.758;6.872;2022-12-07T09:20:58;3.80;99.90
37530;DHT22;23374;52.758;6.872;2022-12-07T09:23:19;3.80;99.90
37530;DHT22;23374;52.758;6.872;2022-12-07T09:25:39;3.90;99.90
37530;DHT22;23374;52.758;6.872;2022-12-07T09:27:59;4.00;99.90
37530;DHT22;23374;52.758;6.872;2022-12-07T09:30:19;4.00;99.90
37530;DHT22;23374;52.758;6.872;2022-12-07T09:32:39;4.10;99.90
37530;DHT22;23374;52.758;6.872;2022-12-07T09:34:59;4.10;99.90
37530;DHT22;23374;52.758;6.872;2022-12-07T09:37:19;4.10;99.90
37530;DHT22;23374;52.758;6.872;2022-12-07T09:39:40;4.10;99.90
37530;DHT22;23374;52.758;6.872;2022-12-07T09:42:04;4.10;99.90
37530;DHT22;23374;52.758;6.872;2022-12-07T09:44:27;4.10;99.90
37530;DHT22;23374;52.758;6.872;2022-12-07T09:46:48;4.20;99.90
37530;DHT22;23374;52.758;6.872;2022-12-07T09:49:16;4.10;99.90
37530;DHT22;23374;52.758;6.872;2022-12-07T09:51:37;4.20;99.90
37530;DHT22;23374;52.758;6.872;2022-12-07T09:53:59;4.20;99.90
37530;DHT22;23374;52.758;6.872;2022-12-07T09:56:21;4.30;99.90
37530;DHT22;23374;52.758;6.872;2022-12-07T09:58:43;4.30;99.90
37530;DHT22;23374;52.758;6.872;2022-12-07T10:01:20;4.40;99.90
37530;DHT22;23374;52.758;6.872;2022-12-07T10:07:21;4.50;99.90
37530;DHT22;23374;52.758;6.872;2022-12-07T10:09:42;4.60;99.90
37530;DHT22;23374;52.758;6.872;2022-12-07T10:12:10;4.60;99.90
37530;DHT22;23374;52.758;6.872;2022-12-07T10:14:34;4.70;99.90
37530;DHT22;23374;52.758;6.872;2022-12-07T10:16:55;4.70;99.90
37530;DHT22;23374;52.758;6.872;2022-12-07T10:19:24;4.70;99.90
37530;DHT22;23374;52.758;6.872;2022-12-07T10:22:16;4.70;99.90
37530;DHT22;23374;52.758;6.872;2022-12-07T10:24:38;4.80;99.90
37530;DHT22;23374;52.758;6.872;2022-12-07T10:27:00;4.80;99.90
37530;DHT22;23374;52.758;6.872;2022-12-07T10:32:38;4.90;99.90
37530;DHT22;23374;52.758;6.872;2022-12-07T10:36:52;4.90;99.90
37530;DHT22;23374;52.758;6.872;2022-12-07T10:39:21;4.90;99.90
37530;DHT22;23374;52.758;6.872;2022-12-07T10:42:01;4.90;99.90
37530;DHT22;23374;52.758;6.872;2022-12-07T10:44:27;5.00;99.90
37530;DHT22;23374;52.758;6.872;2022-12-07T10:47:34;4.90;99.90
37530;DHT22;23374;52.758;6.872;2022-12-07T10:50:52;5.00;99.90
37530;DHT22;23374;52.758;6.872;2022-12-07T11:00:01;5.00;99.90
37530;DHT22;23374;52.758;6.872;2022-12-07T11:04:16;5.00;99.90
37530;DHT22;23374;52.758;6.872;2022-12-07T11:13:09;5.00;99.90
37530;DHT22;23374;52.758;6.872;2022-12-07T11:24:10;5.10;99.90
37530;DHT22;23374;52.758;6.872;2022-12-07T11:33:20;5.10;99.90
37530;DHT22;23374;52.758;6.872;2022-12-07T11:36:45;5.20;99.90
37530;DHT22;23374;52.758;6.872;2022-12-07T11:39:49;5.20;99.90
37530;DHT22;23374;52.758;6.872;2022-12-07T11:42:19;5.20;99.90
37530;DHT22;23374;52.758;6.872;2022-12-07T11:48:35;5.20;99.90
37530;DHT22;23374;52.758;6.872;2022-12-07T11:51:01;5.20;99.90
37530;DHT22;23374;52.758;6.872;2022-12-07T11:54:01;5.20;99.90
37530;DHT22;23374;52.758;6.872;2022-12-07T11:56:26;5.20;99.90
37530;DHT22;23374;52.758;6.872;2022-12-07T11:59:25;5.30;99.90
37530;DHT22;23374;52.758;6.872;2022-12-07T12:02:11;5.30;99.90
37530;DHT22;23374;52.758;6.872;2022-12-07T12:05:02;5.40;99.90
37530;DHT22;23374;52.758;6.872;2022-12-07T12:07:27;5.40;99.90
37530;DHT22;23374;52.758;6.872;2022-12-07T12:10:04;5.50;99.90
37530;DHT22;23374;52.758;6.872;2022-12-07T12:15:28;5.60;99.90
37530;DHT22;23374;52.758;6.872;2022-12-07T12:24:41;5.80;99.90
37530;DHT22;23374;52.758;6.872;2022-12-07T12:27:26;5.80;69.00
37530;DHT22;23374;52.758;6.872;2022-12-07T12:29:55;5.80;14.40
37530;DHT22;23374;52.758;6.872;2022-12-07T12:32:40;5.90;57.00
37530;DHT22;23374;52.758;6.872;2022-12-07T12:35:35;5.90;54.40
37530;DHT22;23374;52.758;6.872;2022-12-07T12:38:27;5.90;61.50
37530;DHT22;23374;52.758;6.872;2022-12-07T12:40:48;5.90;1.00
37530;DHT22;23374;52.758;6.872;2022-12-07T12:43:50;5.90;5.20
37530;DHT22;23374;52.758;6.872;2022-12-07T12:53:16;5.90;1.00
37530;DHT22;23374;52.758;6.872;2022-12-07T12:58:47;5.90;1.00
37530;DHT22;23374;52.758;6.872;2022-12-07T13:08:31;6.00;1.00
37530;DHT22;23374;52.758;6.872;2022-12-07T13:10:52;6.00;1.00
37530;DHT22;23374;52.758;6.872;2022-12-07T13:13:35;6.00;1.00
37530;DHT22;23374;52.758;6.872;2022-12-07T13:17:59;5.90;1.00
37530;DHT22;23374;52.758;6.872;2022-12-07T13:21:50;5.90;1.00
37530;DHT22;23374;52.758;6.872;2022-12-07T13:24:12;5.80;1.00
37530;DHT22;23374;52.758;6.872;2022-12-07T13:26:41;5.80;1.00
37530;DHT22;23374;52.758;6.872;2022-12-07T13:29:21;5.80;1.00
37530;DHT22;23374;52.758;6.872;2022-12-07T13:31:45;5.90;1.00
37530;DHT22;23374;52.758;6.872;2022-12-07T13:34:39;5.90;1.00
37530;DHT22;23374;52.758;6.872;2022-12-07T13:37:30;5.90;1.00
37530;DHT22;23374;52.758;6.872;2022-12-07T13:40:05;6.00;1.00
37530;DHT22;23374;52.758;6.872;2022-12-07T13:42:39;6.00;1.00
37530;DHT22;23374;52.758;6.872;2022-12-07T13:45:25;6.00;1.00
37530;DHT22;23374;52.758;6.872;2022-12-07T13:50:54;6.10;5.00
37530;DHT22;23374;52.758;6.872;2022-12-07T13:53:15;6.10;1.00
37530;DHT22;23374;52.758;6.872;2022-12-07T13:55:35;6.10;1.00
37530;DHT22;23374;52.758;6.872;2022-12-07T13:57:56;6.00;1.00
37530;DHT22;23374;52.758;6.872;2022-12-07T14:00:28;6.00;1.00
37530;DHT22;23374;52.758;6.872;2022-12-07T14:03:28;5.90;1.00
37530;DHT22;23374;52.758;6.872;2022-12-07T14:06:19;5.80;1.00
37530;DHT22;23374;52.758;6.872;2022-12-07T14:08:40;5.80;1.00
37530;DHT22;23374;52.758;6.872;2022-12-07T14:11:01;5.70;1.00
37530;DHT22;23374;52.758;6.872;2022-12-07T14:13:44;5.70;1.00
37530;DHT22;23374;52.758;6.872;2022-12-07T14:16:31;5.60;1.00
37530;DHT22;23374;52.758;6.872;2022-12-07T14:18:51;5.60;1.00
37530;DHT22;23374;52.758;6.872;2022-12-07T14:21:24;5.60;1.00
37530;DHT22;23374;52.758;6.872;2022-12-07T14:23:47;5.50;1.00
37530;DHT22;23374;52.758;6.872;2022-12-07T14:26:22;5.50;4.30
37530;DHT22;23374;52.758;6.872;2022-12-07T14:28:43;5.50;9.60
37530;DHT22;23374;52.758;6.872;2022-12-07T14:31:12;5.50;26.70
37530;DHT22;23374;52.758;6.872;2022-12-07T14:33:33;5.40;1.00
37530;DHT22;23374;52.758;6.872;2022-12-07T14:35:54;5.40;1.00
37530;DHT22;23374;52.758;6.872;2022-12-07T14:38:18;5.40;1.00
37530;DHT22;23374;52.758;6.872;2022-12-07T14:40:39;5.40;3.40
37530;DHT22;23374;52.758;6.872;2022-12-07T14:43:08;5.40;1.50
37530;DHT22;23374;52.758;6.872;2022-12-07T14:45:30;5.30;9.70
37530;DHT22;23374;52.758;6.872;2022-12-07T14:47:51;5.30;4.40
37530;DHT22;23374;52.758;6.872;2022-12-07T14:50:14;5.30;13.00
37530;DHT22;23374;52.758;6.872;2022-12-07T14:52:35;5.20;22.10
37530;DHT22;23374;52.758;6.872;2022-12-07T14:54:55;5.20;17.50
37530;DHT22;23374;52.758;6.872;2022-12-07T14:57:15;5.20;23.80
37530;DHT22;23374;52.758;6.872;2022-12-07T14:59:36;5.20;30.50
37530;DHT22;23374;52.758;6.872;2022-12-07T15:01:57;5.20;39.80
37530;DHT22;23374;52.758;6.872;2022-12-07T15:04:17;5.20;52.60
37530;DHT22;23374;52.758;6.872;2022-12-07T15:06:38;5.20;62.20
37530;DHT22;23374;52.758;6.872;2022-12-07T15:08:59;5.20;63.30
37530;DHT22;23374;52.758;6.872;2022-12-07T15:11:19;5.10;72.70
37530;DHT22;23374;52.758;6.872;2022-12-07T15:13:39;5.10;86.10
37530;DHT22;23374;52.758;6.872;2022-12-07T15:16:20;5.10;91.40
37530;DHT22;23374;52.758;6.872;2022-12-07T15:18:41;5.10;92.70
37530;DHT22;23374;52.758;6.872;2022-12-07T15:21:01;5.00;95.90
37530;DHT22;23374;52.758;6.872;2022-12-07T15:23:22;5.00;96.00
37530;DHT22;23374;52.758;6.872;2022-12-07T15:25:47;5.00;99.90
37530;DHT22;23374;52.758;6.872;2022-12-07T15:28:08;5.00;88.30
37530;DHT22;23374;52.758;6.872;2022-12-07T15:30:28;5.00;99.60
37530;DHT22;23374;52.758;6.872;2022-12-07T15:32:52;5.00;95.70
37530;DHT22;23374;52.758;6.872;2022-12-07T15:35:13;5.00;99.90
37530;DHT22;23374;52.758;6.872;2022-12-07T15:37:33;5.00;99.90
37530;DHT22;23374;52.758;6.872;2022-12-07T15:39:54;4.90;99.90
37530;DHT22;23374;52.758;6.872;2022-12-07T15:42:14;4.90;99.90
37530;DHT22;23374;52.758;6.872;2022-12-07T15:44:34;4.90;99.90
37530;DHT22;23374;52.758;6.872;2022-12-07T15:47:13;4.90;99.90
37530;DHT22;23374;52.758;6.872;2022-12-07T15:49:33;4.90;99.90
37530;DHT22;23374;52.758;6.872;2022-12-07T15:51:53;4.90;99.90
37530;DHT22;23374;52.758;6.872;2022-12-07T15:54:27;5.00;99.90
37530;DHT22;23374;52.758;6.872;2022-12-07T15:56:47;5.00;99.90
37530;DHT22;23374;52.758;6.872;2022-12-07T15:59:08;5.00;99.90
37530;DHT22;23374;52.758;6.872;2022-12-07T16:01:28;5.00;99.90
37530;DHT22;23374;52.758;6.872;2022-12-07T16:03:48;5.10;99.90
37530;DHT22;23374;52.758;6.872;2022-12-07T16:06:08;5.10;99.90
37530;DHT22;23374;52.758;6.872;2022-12-07T16:08:28;5.10;99.90
37530;DHT22;23374;52.758;6.872;2022-12-07T16:10:49;5.10;99.90
37530;DHT22;23374;52.758;6.872;2022-12-07T16:13:13;5.10;99.90
37530;DHT22;23374;52.758;6.872;2022-12-07T16:15:42;5.10;99.90
37530;DHT22;23374;52.758;6.872;2022-12-07T16:18:03;5.10;99.90
37530;DHT22;23374;52.758;6.872;2022-12-07T16:20:23;5.00;99.90
37530;DHT22;23374;52.758;6.872;2022-12-07T16:22:43;5.00;99.90
37530;DHT22;23374;52.758;6.872;2022-12-07T16:25:05;5.00;99.90
37530;DHT22;23374;52.758;6.872;2022-12-07T16:27:25;5.00;99.90
37530;DHT22;23374;52.758;6.872;2022-12-07T16:29:45;4.90;99.90
37530;DHT22;23374;52.758;6.872;2022-12-07T16:32:06;4.80;99.90
37530;DHT22;23374;52.758;6.872;2022-12-07T16:34:26;4.80;99.90
37530;DHT22;23374;52.758;6.872;2022-12-07T16:36:46;4.80;99.90
37530;DHT22;23374;52.758;6.872;2022-12-07T16:39:07;4.80;99.90
37530;DHT22;23374;52.758;6.872;2022-12-07T16:41:27;4.70;99.90
37530;DHT22;23374;52.758;6.872;2022-12-07T16:43:48;4.70;99.90
37530;DHT22;23374;52.758;6.872;2022-12-07T16:46:08;4.70;99.90
37530;DHT22;23374;52.758;6.872;2022-12-07T16:48:29;4.70;99.90
37530;DHT22;23374;52.758;6.872;2022-12-07T16:50:50;4.70;99.90
37530;DHT22;23374;52.758;6.872;2022-12-07T16:53:15;4.60;99.90
37530;DHT22;23374;52.758;6.872;2022-12-07T16:55:40;4.60;99.90
37530;DHT22;23374;52.758;6.872;2022-12-07T16:58:01;4.60;99.90
37530;DHT22;23374;52.758;6.872;2022-12-07T17:00:21;4.60;99.90
37530;DHT22;23374;52.758;6.872;2022-12-07T17:02:41;4.60;99.90
37530;DHT22;23374;52.758;6.872;2022-12-07T17:05:02;4.60;99.90
37530;DHT22;23374;52.758;6.872;2022-12-07T17:07:22;4.60;92.00
37530;DHT22;23374;52.758;6.872;2022-12-07T17:09:42;4.60;75.40
37530;DHT22;23374;52.758;6.872;2022-12-07T17:12:03;4.60;89.90
37530;DHT22;23374;52.758;6.872;2022-12-07T17:14:25;4.60;66.80
37530;DHT22;23374;52.758;6.872;2022-12-07T17:17:03;4.60;61.50
37530;DHT22;23374;52.758;6.872;2022-12-07T17:19:24;4.60;53.30
37530;DHT22;23374;52.758;6.872;2022-12-07T17:21:45;4.60;92.40